createdAt,value
2022-08-23T00:00:38.321Z,100
2022-08-23T00:10:40.590Z,100
2022-08-23T00:20:42.551Z,100
2022-08-23T00:30:44.839Z,100
2022-08-23T00:40:47.239Z,100
2022-08-23T00:50:49.263Z,100
2022-08-23T01:00:51.367Z,100
2022-08-23T01:10:53.375Z,100
2022-08-23T01:20:55.871Z,100
2022-08-23T01:30:57.553Z,100
2022-08-23T01:40:59.412Z,100
2022-08-23T01:51:01.897Z,100
2022-08-23T02:01:03.549Z,100
2022-08-23T02:11:06.050Z,100
2022-08-23T02:31:09.868Z,100
2022-08-23T02:41:11.857Z,100
2022-08-23T02:51:14.339Z,100
2022-08-23T03:01:16.374Z,100
2022-08-23T03:11:18.736Z,100
2022-08-23T03:21:20.941Z,100
2022-08-23T03:31:22.882Z,100
2022-08-23T03:41:24.854Z,100
2022-08-23T03:51:26.797Z,100
2022-08-23T04:01:29.225Z,100
2022-08-23T04:11:31.536Z,100
2022-08-23T04:21:33.915Z,100
2022-08-23T04:31:35.928Z,100
2022-08-23T04:41:38.410Z,100
2022-08-23T04:51:40.703Z,100
2022-08-23T05:01:42.351Z,100
2022-08-23T05:11:44.918Z,100
2022-08-23T05:21:47.178Z,100
2022-08-23T05:31:49.827Z,100
2022-08-23T05:41:51.659Z,100
2022-08-23T05:51:53.986Z,100
2022-08-23T06:01:56.091Z,100
2022-08-23T06:11:58.673Z,100
2022-08-23T06:22:01.072Z,100
2022-08-23T06:32:03.762Z,100
2022-08-23T06:42:17.631Z,100
2022-08-23T06:52:08.621Z,100
2022-08-23T07:02:11.269Z,100
2022-08-23T07:12:13.176Z,100
2022-08-23T07:22:15.911Z,100
2022-08-23T07:32:18.597Z,100
2022-08-23T07:42:23.239Z,100
2022-08-23T07:52:22.354Z,100
2022-08-23T08:12:26.813Z,100
2022-08-23T08:22:29.301Z,100
2022-08-23T08:32:31.235Z,100
2022-08-23T08:42:33.827Z,100
2022-08-23T08:52:36.751Z,100
2022-08-23T09:02:38.821Z,100
2022-08-23T09:12:41.365Z,100
2022-08-23T09:22:43.959Z,100
2022-08-23T09:32:45.841Z,100
2022-08-23T09:42:47.573Z,100
2022-08-23T10:02:51.276Z,100
2022-08-23T10:12:53.253Z,100
2022-08-23T10:22:55.756Z,100
2022-08-23T10:32:58.283Z,100
2022-08-23T10:43:00.664Z,100
2022-08-23T11:03:05.619Z,100
2022-08-23T11:13:07.570Z,100
2022-08-23T11:23:09.361Z,100
2022-08-23T11:33:11.817Z,100
2022-08-23T11:43:13.669Z,100
2022-08-23T11:53:16.914Z,100
2022-08-23T12:03:18.384Z,99
2022-08-23T12:13:20.403Z,100
2022-08-23T12:23:22.822Z,94
2022-08-23T12:33:24.616Z,87
2022-08-23T12:43:26.861Z,84
2022-08-23T12:53:28.674Z,89
2022-08-23T13:03:31.173Z,90
2022-08-23T13:13:33.003Z,79
2022-08-23T13:23:34.724Z,80
2022-08-23T13:33:36.426Z,78
2022-08-23T13:43:38.901Z,77
2022-08-23T13:53:40.680Z,73
2022-08-23T14:03:42.631Z,76
2022-08-23T14:13:44.244Z,76
2022-08-23T14:23:46.676Z,76
2022-08-23T14:33:48.336Z,72
2022-08-23T14:53:52.342Z,74
2022-08-23T15:03:54.175Z,78
2022-08-23T16:14:09.049Z,94
2022-08-23T16:24:11.052Z,93
2022-08-23T16:34:13.647Z,100
2022-08-23T16:44:16.273Z,100
2022-08-23T16:54:18.440Z,100
2022-08-23T17:14:22.736Z,100
2022-08-23T17:54:31.791Z,100
2022-08-23T18:34:40.552Z,100
2022-08-23T18:44:42.190Z,100
2022-08-23T18:54:44.538Z,100
2022-08-23T19:04:46.448Z,100
2022-08-23T19:34:51.856Z,100
2022-08-23T19:54:57.029Z,100
2022-08-23T20:14:59.930Z,100
2022-08-23T20:25:02.365Z,100
2022-08-23T20:35:04.750Z,100
2022-08-23T20:37:59.285Z,100
2022-08-23T20:45:16.333Z,100
2022-08-23T20:55:18.531Z,100
2022-08-23T21:05:20.243Z,100
2022-08-23T21:15:22.052Z,100
2022-08-23T21:25:24.258Z,100
2022-08-23T21:35:26.445Z,100
2022-08-23T21:45:28.278Z,100
2022-08-23T21:55:36.373Z,100
2022-08-23T22:25:36.976Z,100
2022-08-23T22:35:39.183Z,100
2022-08-23T22:45:44.933Z,100
2022-08-23T22:55:43.879Z,100
2022-08-23T23:05:46.331Z,100
2022-08-23T23:15:48.701Z,100
2022-08-23T23:25:50.708Z,100
2022-08-23T23:35:53.323Z,100
2022-08-23T23:45:55.812Z,100
2022-08-23T23:55:57.980Z,100
